createdAt,value
2023-03-16T06:31:45.477Z,97576.75
2023-03-16T06:38:29.369Z,97581.63
2023-03-16T06:45:04.249Z,97596.16
2023-03-16T06:48:11.121Z,97593.44
2023-03-16T06:51:34.569Z,97592.84
2023-03-16T06:54:44.672Z,97588.31
2023-03-16T06:57:57.909Z,97591.44
2023-03-16T07:01:52.508Z,97583.78
2023-03-16T07:04:43.702Z,97595.44
2023-03-16T07:08:37.395Z,97589.44
2023-03-16T07:11:19.099Z,97587.00
2023-03-16T07:14:28.222Z,97581.78
2023-03-16T07:17:34.200Z,97580.78
2023-03-16T07:20:44.976Z,97586.41
2023-03-16T07:23:49.110Z,97589.25
2023-03-16T07:26:52.887Z,97574.75
2023-03-16T07:29:57.275Z,97580.00
2023-03-16T07:33:02.813Z,97580.97
2023-03-16T07:36:07.504Z,97587.44
2023-03-16T07:39:15.126Z,97583.78
2023-03-16T07:42:19.497Z,97575.13
2023-03-16T07:45:24.384Z,97570.47
2023-03-16T07:48:38.791Z,97575.72
2023-03-16T07:51:43.274Z,97569.66
2023-03-16T07:54:46.910Z,97580.50
2023-03-16T07:57:54.989Z,97581.25
2023-03-16T08:00:59.091Z,97582.47
2023-03-16T08:04:03.249Z,97576.78
2023-03-16T08:07:07.238Z,97580.38
2023-03-16T08:10:14.230Z,97578.91
2023-03-16T08:13:17.950Z,97582.16
2023-03-16T08:16:22.205Z,97592.75
2023-03-16T08:19:26.056Z,97584.00
2023-03-16T08:22:30.285Z,97588.53
2023-03-16T08:25:35.611Z,97588.59
2023-03-16T08:28:44.024Z,97587.63
2023-03-16T08:31:52.480Z,97590.56
2023-03-16T08:34:58.055Z,97584.97
2023-03-16T08:38:02.504Z,97581.34
2023-03-16T08:41:07.959Z,97587.56
2023-03-16T08:44:13.421Z,97583.38
2023-03-16T08:47:17.806Z,97575.88
2023-03-16T08:50:27.602Z,97583.34
2023-03-16T08:53:34.539Z,97574.44
2023-03-16T08:56:40.564Z,97574.06
2023-03-16T08:59:50.199Z,97569.63
2023-03-16T09:02:57.053Z,97556.19
2023-03-16T09:06:05.430Z,97562.00
2023-03-16T09:09:11.091Z,97561.44
2023-03-16T09:12:17.638Z,97571.00
2023-03-16T09:15:26.294Z,97565.44
2023-03-16T09:18:30.676Z,97572.34
2023-03-16T09:21:36.416Z,97570.63
2023-03-16T09:24:44.926Z,97577.00
2023-03-16T09:27:51.643Z,97567.91
2023-03-16T09:30:59.914Z,97557.91
2023-03-16T09:34:05.298Z,97558.50
2023-03-16T09:37:09.817Z,97547.09
2023-03-16T09:40:13.946Z,97555.50
2023-03-16T09:43:17.828Z,97550.69
2023-03-16T09:46:23.588Z,97544.22
2023-03-16T09:49:32.409Z,97539.19
2023-03-16T09:52:50.933Z,97541.03
2023-03-16T09:55:58.161Z,97537.50
2023-03-16T09:59:07.529Z,97530.78
2023-03-16T10:02:11.912Z,97537.78
2023-03-16T10:05:23.198Z,97526.69
2023-03-16T10:08:29.511Z,97541.34
2023-03-16T10:11:36.378Z,97521.38
2023-03-16T10:14:40.663Z,97530.53
2023-03-16T10:18:33.332Z,97523.44
2023-03-16T10:21:13.525Z,97521.34
2023-03-16T10:24:17.908Z,97519.88
2023-03-16T10:30:53.272Z,97514.53
2023-03-16T10:34:04.459Z,97516.31
2023-03-16T10:37:09.122Z,97517.38
2023-03-16T10:40:13.652Z,97530.56
2023-03-16T10:43:18.178Z,97530.44
2023-03-16T10:46:24.744Z,97527.31
2023-03-16T10:49:29.958Z,97532.06
2023-03-16T10:52:36.654Z,97537.44
2023-03-16T10:55:44.398Z,97544.38
2023-03-16T10:58:52.484Z,97529.88
2023-03-16T11:01:57.977Z,97532.22
2023-03-16T11:05:12.824Z,97533.16
2023-03-16T11:08:30.285Z,97526.41
2023-03-16T11:19:06.517Z,97521.75
2023-03-16T11:21:39.858Z,97524.56
2023-03-16T11:24:46.852Z,97521.81
2023-03-16T11:27:53.185Z,97519.84
2023-03-16T11:30:57.017Z,97512.53
2023-03-16T11:34:04.562Z,97512.72
2023-03-16T11:37:08.501Z,97509.88
2023-03-16T11:40:13.003Z,97513.22
2023-03-16T11:43:17.010Z,97509.56
2023-03-16T11:46:21.009Z,97526.03
2023-03-16T11:49:25.729Z,97518.53
2023-03-16T11:52:29.692Z,97514.56
2023-03-16T11:55:34.910Z,97512.31
2023-03-16T11:58:39.433Z,97510.66
2023-03-16T12:01:54.310Z,97510.28
2023-03-16T12:05:06.652Z,97513.91
2023-03-16T12:08:16.720Z,97505.78
2023-03-16T12:11:22.083Z,97501.97
2023-03-16T12:17:50.182Z,97488.25
2023-03-16T12:20:56.981Z,97486.75
2023-03-16T12:27:31.106Z,97491.72
2023-03-16T12:32:19.036Z,97485.84
2023-03-16T12:38:31.770Z,97472.94
2023-03-16T12:44:36.477Z,97471.00
2023-03-16T12:47:43.162Z,97466.00
2023-03-16T12:54:14.426Z,97453.91
2023-03-16T13:42:22.560Z,97411.06
2023-03-16T13:48:56.516Z,97393.78
2023-03-16T13:55:53.780Z,97408.31
2023-03-16T13:59:01.991Z,97394.69
2023-03-16T14:02:16.807Z,97405.78
2023-03-16T14:05:22.230Z,97403.19
2023-03-16T14:11:55.027Z,97384.41
2023-03-16T14:15:09.775Z,97385.06
2023-03-16T14:18:20.229Z,97378.16
2023-03-16T14:21:33.332Z,97372.72
2023-03-16T14:27:59.763Z,97382.72
2023-03-16T14:31:06.857Z,97378.75
2023-03-16T14:35:00.666Z,97381.19
2023-03-16T14:46:04.054Z,97377.00
2023-03-16T14:48:00.100Z,97368.16
2023-03-16T14:51:53.878Z,97370.81
2023-03-16T15:01:14.976Z,97363.63
2023-03-16T15:04:22.861Z,97357.88
2023-03-16T15:07:41.299Z,97353.09
2023-03-16T15:14:16.913Z,97359.00
2023-03-16T15:21:29.595Z,97340.44
2023-03-16T15:24:19.349Z,97334.19
2023-03-16T15:27:27.245Z,97326.38
2023-03-16T15:40:49.464Z,97319.91
2023-03-16T15:47:37.700Z,97316.69
2023-03-16T15:58:23.069Z,97303.13
2023-03-16T16:01:03.064Z,97299.53
2023-03-16T16:04:08.504Z,97298.97
2023-03-16T16:07:27.643Z,97288.88
2023-03-16T16:14:00.817Z,97281.63
2023-03-16T16:18:18.653Z,97287.03
2023-03-16T16:20:46.794Z,97285.75
2023-03-16T16:24:01.439Z,97286.22
2023-03-16T16:41:24.040Z,97284.56
2023-03-16T16:51:35.914Z,97276.09
2023-03-16T16:55:27.669Z,97275.75
2023-03-16T17:01:44.660Z,97272.63
2023-03-16T17:08:17.881Z,97280.72
2023-03-16T17:11:26.340Z,97278.44
2023-03-16T17:14:43.887Z,97273.91
2023-03-16T17:17:51.016Z,97270.38
2023-03-16T17:24:27.353Z,97274.88
2023-03-16T17:27:44.931Z,97277.81
2023-03-16T17:30:54.795Z,97283.16
2023-03-16T17:33:58.957Z,97282.63
2023-03-16T17:37:02.975Z,97285.28
2023-03-16T17:40:10.414Z,97283.41
2023-03-16T17:43:18.923Z,97280.63
2023-03-16T17:46:24.274Z,97276.63
2023-03-16T17:49:32.496Z,97275.06
2023-03-16T17:52:36.751Z,97271.84
2023-03-16T17:55:41.399Z,97273.94
2023-03-16T17:58:55.827Z,97274.53
2023-03-16T18:02:00.065Z,97276.75
2023-03-16T18:05:08.664Z,97278.09
2023-03-16T18:08:12.805Z,97268.34
2023-03-16T18:11:20.464Z,97267.09
2023-03-16T18:14:24.758Z,97273.25
2023-03-16T18:20:55.430Z,97270.38
2023-03-16T18:24:00.050Z,97262.75
2023-03-16T18:27:04.519Z,97263.84
2023-03-16T18:30:10.047Z,97264.28
2023-03-16T18:33:41.113Z,97260.44
2023-03-16T18:36:57.013Z,97270.88
2023-03-16T18:43:38.684Z,97292.03
2023-03-16T18:47:37.489Z,97283.69
2023-03-16T18:50:14.622Z,97276.34
2023-03-16T18:53:21.114Z,97269.00
2023-03-16T18:56:33.898Z,97283.22
2023-03-16T19:03:05.877Z,97291.22
2023-03-16T19:06:15.231Z,97290.47
2023-03-16T19:09:19.503Z,97289.81
2023-03-16T19:12:23.857Z,97290.56
2023-03-16T19:15:38.314Z,97290.31
2023-03-16T19:18:44.561Z,97292.34
2023-03-16T19:21:59.143Z,97290.69
2023-03-16T19:25:03.229Z,97287.19
2023-03-16T19:29:45.771Z,97285.56
2023-03-16T19:31:40.875Z,97290.59
2023-03-16T19:35:44.742Z,97285.66
2023-03-16T19:41:44.971Z,97305.75
2023-03-16T19:44:58.409Z,97304.59
2023-03-16T19:48:02.664Z,97298.00
2023-03-16T19:51:07.530Z,97296.22
2023-03-16T19:54:14.947Z,97296.16
2023-03-16T19:57:21.554Z,97283.84
2023-03-16T20:00:40.439Z,97285.09
2023-03-16T20:03:45.179Z,97285.38
2023-03-16T20:24:09.401Z,97281.72
2023-03-16T20:28:16.979Z,97291.63
2023-03-16T20:40:52.123Z,97294.97
2023-03-16T20:44:44.766Z,97303.31
2023-03-16T20:54:22.147Z,97297.25
2023-03-16T20:57:49.504Z,97290.25
2023-03-16T21:00:54.588Z,97281.66
2023-03-16T21:04:05.157Z,97287.25
2023-03-16T21:07:26.158Z,97284.53
2023-03-16T21:14:49.279Z,97274.94
2023-03-16T21:17:31.675Z,97284.28
2023-03-16T21:31:23.076Z,97291.59
2023-03-16T21:48:40.082Z,97284.44
2023-03-16T21:58:29.476Z,97275.50
2023-03-16T22:01:40.870Z,97271.59
2023-03-16T22:09:06.956Z,97257.47
2023-03-16T22:11:50.614Z,97256.00
2023-03-16T22:18:22.758Z,97262.97
2023-03-16T22:21:48.246Z,97263.16
2023-03-16T22:25:02.504Z,97255.19
2023-03-16T22:33:09.965Z,97248.44
2023-03-16T22:38:52.489Z,97260.38
2023-03-16T22:42:09.388Z,97253.84
2023-03-16T22:55:46.837Z,97260.59
2023-03-16T22:59:15.744Z,97262.41
2023-03-16T23:02:18.969Z,97252.25
2023-03-16T23:05:24.487Z,97250.88
2023-03-16T23:09:23.080Z,97261.47
2023-03-16T23:15:32.725Z,97245.13
2023-03-16T23:18:42.881Z,97257.81
2023-03-16T23:22:19.949Z,97252.72
2023-03-16T23:25:26.155Z,97253.41
2023-03-16T23:32:05.395Z,97247.25
2023-03-16T23:38:40.982Z,97247.09
2023-03-16T23:41:57.517Z,97254.78
2023-03-16T23:45:01.909Z,97249.91
2023-03-16T23:48:06.916Z,97252.91
2023-03-16T23:54:37.409Z,97237.53
2023-03-16T23:57:42.642Z,97244.13
